Time;durP1;ratioP1;P1;durP2;ratioP2;P2;SDS_P1;SDS_P2;PMS_P1;PMS_P2;Temp;Humidity;BMP_temperature;BMP_pressure;BME280_temperature;BME280_humidity;BME280_pressure;Samples;Min_cycle;Max_cycle;Signal;HPM_P1;HPM_P2
2022/02/18 00:01:16;;;;;;;11.75;2.40;;;5.60;84.00;;;5.69;59.62;100008.53;4987366;28;20275;-74
2022/02/18 00:03:47;;;;;;;6.13;3.35;;;5.60;82.60;;;5.64;59.89;100008.28;4985685;28;20206;-75
2022/02/18 00:06:16;;;;;;;10.25;2.17;;;5.60;82.30;;;5.66;60.13;100022.31;4980478;28;20195;-75
2022/02/18 00:08:45;;;;;;;9.80;2.25;;;5.60;83.00;;;5.63;59.89;100020.03;4976047;28;20203;-75
2022/02/18 00:11:14;;;;;;;10.75;2.85;;;5.60;82.80;;;5.72;59.61;100019.91;4975788;28;20175;-74
2022/02/18 00:13:44;;;;;;;6.55;2.72;;;5.60;81.50;;;5.73;59.59;100021.56;4974196;28;20315;-76
2022/02/18 00:16:12;;;;;;;6.82;2.38;;;5.60;80.30;;;5.70;59.41;100028.16;4974948;28;20618;-74
2022/02/18 00:18:41;;;;;;;12.73;2.53;;;5.60;79.50;;;5.65;59.42;100026.06;4975026;28;20247;-74
2022/02/18 00:21:09;;;;;;;5.72;2.47;;;5.60;79.80;;;5.63;59.83;100036.13;4975166;28;20574;-74
2022/02/18 00:23:38;;;;;;;13.48;4.03;;;5.60;80.10;;;5.68;59.48;100033.72;4975067;28;20179;-75
2022/02/18 00:26:07;;;;;;;7.30;2.85;;;5.60;78.90;;;5.64;59.71;100043.19;4972883;28;20199;-74
2022/02/18 00:28:35;;;;;;;9.15;2.70;;;5.60;78.00;;;5.67;59.32;100048.16;4974949;28;20211;-74
2022/02/18 00:31:05;;;;;;;7.45;2.60;;;5.60;78.40;;;5.63;59.45;100051.41;4974943;28;20192;-77
2022/02/18 00:33:34;;;;;;;10.07;3.20;;;5.50;77.70;;;5.61;59.62;100065.03;4974210;28;20693;-74
2022/02/18 00:36:02;;;;;;;7.47;2.58;;;5.50;78.30;;;5.60;59.53;100052.63;4975086;28;20271;-74
2022/02/18 00:38:31;;;;;;;11.43;1.77;;;5.50;78.50;;;5.58;59.99;100053.81;4974716;28;20219;-75
2022/02/18 00:40:59;;;;;;;10.65;3.22;;;5.50;78.50;;;5.53;59.65;100057.09;4974828;28;20255;-76
2022/02/18 00:43:27;;;;;;;7.18;3.03;;;5.50;78.50;;;5.56;60.03;100058.56;4974987;28;20271;-74
2022/02/18 00:45:56;;;;;;;9.85;2.72;;;5.50;79.20;;;5.55;60.17;100073.84;4974049;28;20203;-74
2022/02/18 00:48:26;;;;;;;6.45;2.17;;;5.50;80.70;;;5.55;60.24;100076.53;4975598;28;20179;-75
2022/02/18 00:50:54;;;;;;;7.28;2.10;;;5.40;80.40;;;5.56;60.47;100066.63;4990305;28;20209;-75
2022/02/18 00:53:22;;;;;;;5.97;2.70;;;5.40;80.40;;;5.53;60.27;100078.56;4975978;28;20639;-75
2022/02/18 00:55:51;;;;;;;9.02;2.25;;;5.40;81.40;;;5.52;60.07;100086.78;4974541;28;20250;-74
2022/02/18 00:58:20;;;;;;;11.57;2.97;;;5.40;80.00;;;5.53;60.20;100089.28;4978353;28;20207;-75
2022/02/18 01:00:50;;;;;;;6.43;2.42;;;5.40;80.30;;;5.52;60.49;100090.31;4983816;28;20188;-75
2022/02/18 01:03:19;;;;;;;18.17;4.18;;;5.40;81.40;;;5.53;60.68;100086.59;4983704;28;20198;-74
2022/02/18 01:05:51;;;;;;;10.32;2.10;;;5.40;82.70;;;5.55;60.38;100097.16;4980729;28;20685;-74
2022/02/18 01:08:19;;;;;;;4.65;2.13;;;5.50;81.90;;;5.53;60.80;100100.03;4980990;28;20226;-75
2022/02/18 01:10:48;;;;;;;3.08;2.25;;;5.40;83.60;;;5.53;60.64;100091.97;4979779;28;20290;-74
2022/02/18 01:13:17;;;;;;;9.15;2.20;;;5.40;83.70;;;5.47;61.32;100100.78;4981356;28;20183;-75
2022/02/18 01:15:47;;;;;;;9.15;2.78;;;5.40;85.80;;;5.44;61.20;100097.63;4980462;28;20394;-74
2022/02/18 01:18:16;;;;;;;7.32;2.13;;;5.40;86.90;;;5.44;61.22;100101.16;4981096;28;20214;-75
2022/02/18 01:20:44;;;;;;;8.05;2.30;;;5.40;86.20;;;5.41;61.42;100109.59;4981614;28;20203;-74
2022/02/18 01:23:14;;;;;;;10.32;2.55;;;5.30;87.70;;;5.36;61.71;100098.59;4985855;28;20215;-74
2022/02/18 01:25:43;;;;;;;11.30;2.45;;;5.30;88.40;;;5.35;61.92;100113.03;4983626;28;20191;-75
2022/02/18 01:28:12;;;;;;;28.80;2.83;;;5.30;88.40;;;5.37;61.68;100119.03;4984139;28;20180;-74
2022/02/18 01:30:41;;;;;;;13.20;3.35;;;5.30;89.80;;;5.33;61.50;100114.22;4983592;28;20175;-74
2022/02/18 01:33:09;;;;;;;9.15;2.20;;;5.30;92.30;;;5.37;61.52;100100.25;4999985;28;20180;-74
2022/02/18 01:35:38;;;;;;;6.93;2.10;;;5.30;88.50;;;5.34;61.70;100116.72;5119454;23;20266;-71
2022/02/18 01:38:07;;;;;;;5.82;2.45;;;5.30;89.20;;;5.30;61.78;100114.59;4971612;28;20254;-72
2022/02/18 01:40:38;;;;;;;7.45;2.15;;;5.20;89.90;;;5.29;62.17;100118.28;4955057;28;20204;-76
2022/02/18 01:43:06;;;;;;;9.45;1.83;;;5.20;90.10;;;5.29;61.63;100121.81;4955040;29;20183;-72
2022/02/18 01:45:35;;;;;;;12.55;1.88;;;5.20;89.60;;;5.32;61.67;100118.78;4955031;28;20251;-71
2022/02/18 01:48:05;;;;;;;11.15;3.75;;;5.20;89.00;;;5.30;61.86;100114.59;5001013;23;20234;-75
2022/02/18 01:50:34;;;;;;;12.90;2.67;;;5.20;89.60;;;5.24;61.27;100110.81;4972035;28;20602;-75
2022/02/18 01:53:03;;;;;;;6.45;1.90;;;5.20;88.00;;;5.36;60.84;100120.06;4972187;28;20701;-75
2022/02/18 01:55:31;;;;;;;8.80;1.92;;;5.30;87.10;;;5.34;61.00;100116.72;4971592;28;20576;-76
2022/02/18 01:58:10;;;;;;;5.93;1.67;;;5.30;86.20;;;5.36;60.74;100125.44;4972128;28;20207;-75
2022/02/18 02:00:45;;;;;;;5.50;2.35;;;5.30;85.00;;;5.33;60.59;100120.41;4971983;28;20202;-75
2022/02/18 02:03:13;;;;;;;13.45;2.35;;;5.30;84.10;;;5.35;60.50;100126.44;4970758;28;20722;-75
2022/02/18 02:05:42;;;;;;;11.70;3.17;;;5.30;83.50;;;5.36;60.42;100130.78;4971857;28;20180;-75
2022/02/18 02:08:15;;;;;;;7.30;2.28;;;5.30;82.80;;;5.35;60.31;100131.81;4971446;28;20180;-77
2022/02/18 02:10:47;;;;;;;9.48;2.08;;;5.30;93.10;;;5.30;60.33;100133.38;4970497;28;20199;-75
2022/02/18 02:13:33;;;;;;;12.68;3.05;;;5.30;81.90;;;5.32;60.54;100139.41;4986762;28;20714;-74
2022/02/18 02:16:07;;;;;;;8.73;2.40;;;5.20;82.00;;;5.28;60.63;100138.91;4987116;28;20219;-76
2022/02/18 02:18:36;;;;;;;12.05;2.05;;;5.20;82.40;;;5.24;60.88;100143.00;4986850;28;20234;-75
2022/02/18 02:21:05;;;;;;;6.50;2.33;;;5.20;82.70;;;5.24;60.90;100143.00;4986255;28;20271;-75
2022/02/18 02:23:39;;;;;;;9.55;2.58;;;5.20;82.80;;;5.27;60.45;100142.63;4970656;28;20623;-74
2022/02/18 02:26:10;;;;;;;9.05;2.83;;;5.20;81.70;;;5.28;60.95;100154.22;4970700;28;20666;-75
2022/02/18 02:28:40;;;;;;;6.47;1.20;;;5.20;82.80;;;5.25;60.53;100140.13;4987383;28;20705;-75
2022/02/18 02:31:10;;;;;;;4.95;1.73;;;5.20;81.20;;;5.24;61.16;100153.72;4986723;28;20211;-76
2022/02/18 02:33:40;;;;;;;12.00;3.10;;;5.20;83.60;;;5.27;60.77;100153.38;4986604;28;20179;-76
2022/02/18 02:36:10;;;;;;;8.27;2.10;;;5.20;82.20;;;5.18;61.17;100149.94;4989274;28;20230;-75
2022/02/18 02:38:40;;;;;;;8.23;2.38;;;5.10;83.60;;;5.21;60.62;100151.41;4973848;28;20330;-76
2022/02/18 02:41:09;;;;;;;6.25;2.30;;;5.10;82.50;;;5.20;61.29;100157.81;4974509;28;20196;-76
2022/02/18 02:43:37;;;;;;;4.47;2.15;;;5.10;84.20;;;5.27;61.07;100165.94;4994980;28;20195;-75
2022/02/18 02:46:06;;;;;;;9.27;2.10;;;5.20;84.90;;;5.19;61.47;100166.84;4995100;28;20608;-76
2022/02/18 02:48:35;;;;;;;9.30;2.70;;;5.20;85.10;;;5.07;62.06;100158.47;4995102;28;20223;-76
2022/02/18 02:51:14;;;;;;;5.80;1.90;;;5.10;86.90;;;5.13;61.80;100152.34;4974306;28;20191;-74
2022/02/18 02:53:44;;;;;;;4.68;1.45;;;5.10;88.40;;;5.13;62.16;100172.97;4990108;28;20195;-76
2022/02/18 02:56:15;;;;;;;10.57;2.33;;;5.00;89.10;;;5.08;62.70;100164.66;4989322;28;20226;-75
2022/02/18 02:58:44;;;;;;;6.88;2.50;;;5.00;90.80;;;4.97;62.60;100173.16;4989822;28;20239;-75
2022/02/18 03:01:17;;;;;;;8.30;2.75;;;4.90;91.10;;;5.00;62.77;100180.81;4990558;28;20250;-77
2022/02/18 03:03:49;;;;;;;12.73;1.73;;;4.90;91.40;;;4.98;63.00;100190.91;4979601;28;20191;-75
2022/02/18 03:06:18;;;;;;;13.30;2.33;;;4.90;92.40;;;4.94;63.00;100182.38;4992527;28;20376;-75
2022/02/18 03:08:47;;;;;;;6.05;2.20;;;4.90;92.40;;;4.92;63.07;100167.50;4978564;28;20271;-75
2022/02/18 03:11:25;;;;;;;6.57;2.30;;;4.90;93.20;;;4.85;63.44;100161.19;4998346;28;20557;-75
2022/02/18 03:14:11;;;;;;;9.88;2.60;;;4.80;94.90;;;4.81;63.69;100158.88;4973517;28;20187;-75
2022/02/18 03:16:50;;;;;;;8.48;2.10;;;4.80;95.10;;;4.80;63.51;100157.22;4971900;28;20201;-77
2022/02/18 03:19:19;;;;;;;10.38;2.42;;;4.80;95.60;;;4.79;63.52;100158.22;4973327;28;20218;-75
2022/02/18 03:21:51;;;;;;;9.70;3.35;;;4.70;96.20;;;4.76;63.80;100163.97;4972073;28;20250;-75
2022/02/18 03:24:22;;;;;;;4.03;1.50;;;4.70;96.40;;;4.75;63.80;100158.78;4971635;28;20262;-75
2022/02/18 03:26:53;;;;;;;9.80;1.90;;;4.70;97.40;;;4.69;64.14;100175.59;4972607;28;20213;-76
2022/02/18 03:29:25;;;;;;;6.70;2.47;;;4.70;98.60;;;4.71;64.42;100184.28;4987507;28;20309;-74
2022/02/18 03:31:59;;;;;;;12.85;2.40;;;4.60;98.90;;;4.64;64.68;100181.50;4971692;28;20197;-75
2022/02/18 03:34:31;;;;;;;5.90;1.80;;;4.60;99.90;;;4.64;64.86;100189.53;4987822;28;20195;-76
2022/02/18 03:37:00;;;;;;;8.82;1.85;;;4.60;99.90;;;4.66;64.55;100192.03;4987873;28;20274;-75
2022/02/18 03:39:31;;;;;;;9.80;2.25;;;4.60;99.90;;;4.65;64.74;100196.56;4971547;28;20211;-75
2022/02/18 03:42:01;;;;;;;6.32;2.20;;;4.60;99.90;;;4.61;64.64;100186.38;4988439;28;20282;-75
2022/02/18 03:44:32;;;;;;;8.63;2.95;;;4.60;99.90;;;4.57;64.80;100199.31;4972009;28;20274;-75
2022/02/18 03:47:04;;;;;;;17.48;3.75;;;4.50;99.90;;;4.49;65.03;100194.03;4971200;28;20286;-75
2022/02/18 03:49:34;;;;;;;12.80;2.58;;;4.50;99.90;;;4.46;65.62;100190.84;4971089;28;20226;-75
2022/02/18 03:52:06;;;;;;;7.18;2.35;;;4.40;99.90;;;4.48;65.52;100188.84;4987666;28;20266;-75
2022/02/18 03:54:36;;;;;;;18.60;2.40;;;4.40;99.90;;;4.46;65.52;100197.03;4971094;28;20215;-76
2022/02/18 03:57:05;;;;;;;7.57;2.45;;;4.40;99.90;;;4.44;65.42;100190.22;4972789;28;20223;-76
2022/02/18 03:59:33;;;;;;;4.43;2.33;;;4.40;99.90;;;4.51;65.57;100201.88;4971708;28;20219;-75
2022/02/18 04:02:04;;;;;;;8.95;2.47;;;4.40;99.90;;;4.51;65.43;100193.81;4971905;28;20195;-75
2022/02/18 04:04:35;;;;;;;6.68;2.70;;;4.50;99.90;;;4.52;65.50;100209.72;4971401;28;20222;-75
2022/02/18 04:07:16;;;;;;;3.53;2.03;;;4.50;99.90;;;4.52;65.67;100212.41;4971080;28;20282;-75
2022/02/18 04:09:50;;;;;;;8.93;3.22;;;4.40;99.90;;;4.51;65.79;100217.94;4970579;28;20550;-76
2022/02/18 04:12:21;;;;;;;8.93;1.80;;;4.40;99.90;;;4.49;66.10;100211.94;4986696;28;20191;-75
2022/02/18 04:14:54;;;;;;;6.45;2.85;;;4.40;99.90;;;4.47;66.10;100213.97;4970762;28;20494;-75
2022/02/18 04:17:26;;;;;;;8.15;2.20;;;4.40;99.90;;;4.46;66.05;100213.13;4987688;28;20214;-76
2022/02/18 04:20:22;;;;;;;12.30;2.95;;;4.40;99.90;;;4.48;66.15;100227.19;4971381;28;20219;-75
2022/02/18 04:23:25;;;;;;;4.28;1.98;;;4.40;99.90;;;4.47;66.70;100240.75;4970777;28;20199;-75
2022/02/18 04:25:55;;;;;;;7.00;2.40;;;4.40;99.90;;;4.43;66.90;100229.56;4986788;28;20215;-74
2022/02/18 04:28:23;;;;;;;9.88;2.42;;;4.40;99.90;;;4.41;66.82;100220.84;4972679;28;20198;-76
2022/02/18 04:30:52;;;;;;;10.32;2.25;;;4.40;99.90;;;4.46;66.99;100217.66;4973440;28;20180;-76
2022/02/18 04:33:20;;;;;;;6.85;2.25;;;4.40;99.90;;;4.40;66.66;100216.53;4974124;28;20172;-76
2022/02/18 04:35:49;;;;;;;5.97;2.05;;;4.40;99.90;;;4.37;67.32;100215.03;4973855;28;20654;-75
2022/02/18 04:38:17;;;;;;;4.78;1.73;;;4.40;99.90;;;4.43;66.86;100223.38;4973271;28;20635;-76
2022/02/18 04:40:45;;;;;;;9.73;2.42;;;4.40;99.90;;;4.42;67.11;100219.03;4971480;28;20575;-75
2022/02/18 04:43:15;;;;;;;8.85;2.72;;;4.40;99.90;;;4.42;67.21;100232.41;4971803;28;20282;-75
2022/02/18 04:45:43;;;;;;;9.23;2.50;;;4.40;99.90;;;4.36;67.62;100233.94;4971472;28;20191;-76
2022/02/18 04:48:12;;;;;;;10.25;2.47;;;4.40;99.90;;;4.34;67.87;100241.34;4971758;28;20203;-75
2022/02/18 04:50:40;;;;;;;8.38;2.60;;;4.30;99.90;;;4.32;68.01;100227.28;4973215;28;20629;-75
2022/02/18 04:53:28;;;;;;;13.52;3.47;;;4.30;99.90;;;4.36;67.82;100232.13;4973768;28;20307;-75
2022/02/18 04:55:57;;;;;;;3.53;1.95;;;4.30;99.90;;;4.39;67.65;100233.63;4974997;28;20182;-75
2022/02/18 04:58:26;;;;;;;7.55;3.00;;;4.30;99.90;;;4.34;68.17;100227.97;4969069;28;20569;-75
2022/02/18 05:00:55;;;;;;;11.63;2.92;;;4.30;99.90;;;4.30;68.45;100232.00;4971444;28;20203;-75
2022/02/18 05:03:23;;;;;;;7.03;2.42;;;4.30;99.90;;;4.27;68.35;100237.69;4972013;28;20227;-75
2022/02/18 05:05:52;;;;;;;4.35;2.00;;;4.30;99.90;;;4.18;68.78;100230.72;4971920;28;20191;-76
2022/02/18 05:08:20;;;;;;;10.15;2.97;;;4.20;99.90;;;4.24;68.39;100240.75;4972801;28;20222;-75
2022/02/18 05:10:49;;;;;;;9.20;3.35;;;4.20;99.90;;;4.23;68.81;100236.41;4978494;28;20550;-76
2022/02/18 05:13:17;;;;;;;8.60;2.20;;;4.20;99.90;;;4.23;68.99;100234.56;4984135;28;20258;-75
2022/02/18 05:15:47;;;;;;;7.72;2.65;;;4.20;99.90;;;4.22;69.29;100242.75;4981817;28;20183;-75
2022/02/18 05:18:16;;;;;;;11.38;2.55;;;4.20;99.90;;;4.17;69.39;100239.78;4972371;28;20203;-74
2022/02/18 05:20:44;;;;;;;7.57;2.28;;;4.10;99.90;;;4.16;69.58;100241.66;4971707;28;20195;-76
2022/02/18 05:23:13;;;;;;;11.48;4.80;;;4.10;99.90;;;4.18;69.60;100250.31;4972626;28;20249;-76
2022/02/18 05:25:41;;;;;;;4.75;2.70;;;4.10;99.90;;;4.19;69.44;100241.28;4988415;28;20206;-76
2022/02/18 05:28:10;;;;;;;10.25;2.88;;;4.10;99.90;;;4.15;69.85;100236.44;4981776;28;20171;-75
2022/02/18 05:30:38;;;;;;;11.15;2.90;;;4.10;99.90;;;4.08;69.61;100235.47;4981625;28;20186;-75
2022/02/18 05:33:08;;;;;;;9.18;2.47;;;4.10;99.90;;;4.13;69.73;100235.78;4980572;28;20199;-76
2022/02/18 05:35:36;;;;;;;7.93;2.75;;;4.10;99.90;;;4.11;69.84;100235.16;4972807;28;20198;-74
2022/02/18 05:38:05;;;;;;;6.78;2.30;;;4.10;99.90;;;4.17;70.07;100243.28;4973921;28;20187;-75
2022/02/18 05:40:33;;;;;;;5.10;2.28;;;4.10;99.90;;;4.13;69.90;100243.81;4977408;28;20269;-75
2022/02/18 05:43:04;;;;;;;6.90;2.65;;;4.10;99.90;;;4.07;70.23;100241.84;4981218;28;20176;-76
2022/02/18 05:45:33;;;;;;;7.28;2.85;;;4.00;99.90;;;4.08;70.51;100224.78;4980834;28;20187;-75
2022/02/18 05:48:02;;;;;;;5.45;2.22;;;4.00;99.90;;;4.08;70.62;100238.16;4978814;28;20202;-75
2022/02/18 05:50:31;;;;;;;9.23;3.45;;;4.00;99.90;;;4.08;70.67;100230.97;4982124;28;20223;-76
2022/02/18 05:52:59;;;;;;;9.50;3.13;;;4.00;99.90;;;4.11;70.89;100235.16;4983404;28;20191;-75
2022/02/18 05:55:28;;;;;;;12.05;2.92;;;4.00;99.90;;;4.10;70.69;100239.66;4976816;28;20274;-75
2022/02/18 05:57:56;;;;;;;14.95;3.25;;;4.00;99.90;;;4.11;71.23;100240.50;4971942;28;20219;-74
2022/02/18 06:00:24;;;;;;;11.35;4.25;;;4.00;99.90;;;4.17;70.84;100242.44;4972134;28;20262;-76
2022/02/18 06:02:53;;;;;;;11.98;2.85;;;4.10;99.90;;;4.18;71.02;100246.81;4986649;28;20192;-75
2022/02/18 06:05:21;;;;;;;7.72;3.47;;;4.10;99.90;;;4.17;71.13;100239.78;4971544;28;20180;-75
2022/02/18 06:07:51;;;;;;;6.68;2.88;;;4.10;99.90;;;4.19;71.25;100248.47;4972139;28;20175;-77
2022/02/18 06:10:23;;;;;;;12.40;3.05;;;4.10;99.90;;;4.14;71.13;100251.69;4973491;28;20226;-75
2022/02/18 06:12:52;;;;;;;12.20;4.43;;;4.10;99.90;;;4.17;71.30;100237.94;4975825;28;20190;-77
2022/02/18 06:15:21;;;;;;;13.10;3.25;;;4.10;99.90;;;4.19;71.24;100237.75;4976909;28;20586;-76
2022/02/18 06:17:49;;;;;;;9.30;3.25;;;4.10;99.90;;;4.14;71.70;100234.78;4976387;28;20171;-77
2022/02/18 06:20:18;;;;;;;4.95;2.55;;;4.10;99.90;;;4.25;71.19;100239.75;4978354;28;20211;-75
2022/02/18 06:22:46;;;;;;;13.23;3.60;;;4.10;99.90;;;4.26;71.19;100247.56;4976984;28;20222;-76
2022/02/18 06:25:16;;;;;;;10.05;4.65;;;4.10;99.90;;;4.32;71.08;100238.00;4975624;28;20180;-76
2022/02/18 06:27:45;;;;;;;8.38;4.10;;;4.20;99.90;;;4.35;71.32;100241.19;4975360;28;20627;-76
2022/02/18 06:30:14;;;;;;;6.28;2.70;;;4.20;99.90;;;4.35;71.24;100251.06;4975916;28;20200;-76
2022/02/18 06:32:43;;;;;;;12.32;4.25;;;4.20;99.90;;;4.40;71.11;100255.88;4976976;28;20195;-76
2022/02/18 06:35:11;;;;;;;10.02;5.13;;;4.30;99.90;;;4.33;71.37;100256.59;4983709;28;20172;-75
2022/02/18 06:37:40;;;;;;;7.60;3.85;;;4.30;99.90;;;4.33;71.06;100250.41;4979060;28;20184;-76
2022/02/18 06:40:10;;;;;;;7.72;3.50;;;4.20;99.90;;;4.29;71.62;100249.09;4990582;28;20219;-76
2022/02/18 06:42:41;;;;;;;10.35;4.10;;;4.20;99.90;;;4.34;71.28;100247.53;4978009;28;20176;-76
2022/02/18 06:45:10;;;;;;;9.85;4.78;;;4.20;99.90;;;4.33;71.58;100250.41;4979997;28;20184;-75
2022/02/18 06:47:40;;;;;;;10.43;3.50;;;4.20;99.90;;;4.36;71.10;100244.66;4981207;28;20199;-76
2022/02/18 06:50:10;;;;;;;11.93;3.92;;;4.20;99.90;;;4.32;71.58;100243.38;4975093;28;20207;-74
2022/02/18 06:52:39;;;;;;;16.65;4.35;;;4.30;99.90;;;4.36;71.44;100244.66;4978759;28;20188;-74
2022/02/18 06:55:08;;;;;;;11.02;5.13;;;4.30;99.90;;;4.40;71.39;100248.69;4980871;28;20685;-77
2022/02/18 06:57:44;;;;;;;6.28;4.18;;;4.30;99.90;;;4.41;71.64;100241.44;4983428;28;20190;-75
2022/02/18 07:00:16;;;;;;;13.63;4.50;;;4.30;99.90;;;4.52;71.52;100233.00;4976544;28;20214;-75
2022/02/18 07:02:44;;;;;;;11.35;4.60;;;4.40;99.90;;;4.65;71.10;100228.72;4976730;28;20168;-74
2022/02/18 07:05:16;;;;;;;11.75;4.25;;;4.50;99.90;;;4.69;70.88;100235.41;4992694;28;20215;-75
2022/02/18 07:07:45;;;;;;;6.13;4.53;;;4.50;99.90;;;4.76;71.28;100239.00;4957588;28;20189;-75
2022/02/18 07:10:15;;;;;;;25.08;7.18;;;4.60;99.90;;;4.82;71.03;100232.94;4955231;28;20540;-76
2022/02/18 07:12:45;;;;;;;8.07;5.07;;;4.60;99.90;;;4.99;70.70;100219.34;4956252;28;20192;-75
2022/02/18 07:15:13;;;;;;;13.43;5.57;;;4.80;99.90;;;5.16;70.17;100210.16;4961791;28;20177;-76
2022/02/18 07:17:43;;;;;;;10.52;5.68;;;4.90;99.90;;;5.29;69.76;100210.34;4976577;28;20296;-75
2022/02/18 07:20:14;;;;;;;18.02;6.05;;;5.10;99.90;;;5.37;69.58;100210.25;4955466;28;20223;-76
2022/02/18 07:22:44;;;;;;;12.35;6.20;;;5.10;99.90;;;5.55;69.03;100204.50;4954160;28;20254;-76
2022/02/18 07:25:15;;;;;;;10.77;6.03;;;5.30;99.90;;;5.63;69.17;100202.56;4955462;28;20184;-74
2022/02/18 07:27:46;;;;;;;9.68;6.40;;;5.40;99.90;;;5.63;68.62;100193.66;4955289;28;20188;-75
2022/02/18 07:30:16;;;;;;;12.05;6.10;;;5.40;99.90;;;5.64;69.27;100193.50;4956354;28;20729;-74
2022/02/18 07:32:47;;;;;;;9.85;5.55;;;5.50;99.90;;;5.62;69.13;100198.19;4958190;28;20687;-75
2022/02/18 07:35:18;;;;;;;11.43;6.40;;;5.50;99.90;;;5.72;69.11;100186.34;5000687;23;20231;-74
2022/02/18 07:37:49;;;;;;;9.82;5.10;;;5.50;99.90;;;5.88;68.63;100176.25;4996910;28;20210;-74
2022/02/18 07:40:18;;;;;;;18.77;5.78;;;5.70;99.90;;;5.99;68.37;100174.94;4964500;28;20258;-75
2022/02/18 07:42:48;;;;;;;9.55;5.40;;;5.70;99.90;;;6.10;68.00;100177.09;4962915;28;20207;-75
2022/02/18 07:45:17;;;;;;;14.98;7.28;;;5.90;99.90;;;6.22;67.57;100164.84;4965162;28;20175;-74
2022/02/18 07:47:45;;;;;;;17.67;7.95;;;6.00;99.90;;;6.26;67.47;100176.84;4974416;28;20179;-74
2022/02/18 07:50:14;;;;;;;11.80;6.20;;;6.10;99.90;;;6.43;67.45;100162.16;4974140;28;20214;-73
2022/02/18 07:52:43;;;;;;;11.65;6.93;;;6.20;99.90;;;6.50;67.00;100179.16;4972901;28;20183;-74
2022/02/18 07:55:11;;;;;;;14.43;6.65;;;6.30;99.90;;;6.49;66.87;100180.19;4972455;28;20195;-74
2022/02/18 07:57:40;;;;;;;16.55;6.63;;;6.30;99.90;;;6.55;66.66;100171.34;4973312;28;20215;-74
2022/02/18 08:00:12;;;;;;;17.83;7.38;;;6.40;99.90;;;6.72;65.84;100168.38;4975152;28;20215;-73
2022/02/18 08:02:41;;;;;;;10.73;6.22;;;6.50;99.90;;;6.87;66.22;100166.44;4974385;28;20572;-73
2022/02/18 08:05:10;;;;;;;8.75;7.18;;;6.60;99.90;;;6.97;65.81;100173.13;4974376;28;20198;-73
2022/02/18 08:07:39;;;;;;;16.05;6.32;;;6.70;99.90;;;6.84;65.72;100174.88;4974447;28;20254;-73
2022/02/18 08:10:10;;;;;;;14.77;6.10;;;6.70;99.90;;;6.84;65.83;100172.19;4975328;28;20247;-73
2022/02/18 08:12:38;;;;;;;8.40;5.97;;;6.70;99.90;;;6.97;66.37;100164.25;4974941;28;20448;-75
2022/02/18 08:15:08;;;;;;;23.35;7.65;;;6.80;99.90;;;7.24;65.55;100170.59;4975265;28;20195;-74
2022/02/18 08:17:39;;;;;;;11.93;7.07;;;6.90;99.90;;;7.28;65.05;100158.41;4972758;28;20300;-75
2022/02/18 08:20:11;;;;;;;11.57;7.00;;;7.00;99.90;;;7.33;64.17;100159.47;4987325;28;20311;-75
2022/02/18 08:22:41;;;;;;;9.20;5.10;;;7.10;99.90;;;7.31;64.66;100158.84;4972931;28;20195;-73
2022/02/18 08:25:11;;;;;;;13.05;7.45;;;7.10;99.90;;;7.35;64.57;100160.13;4973047;28;20717;-73
2022/02/18 08:27:42;;;;;;;18.00;6.82;;;7.10;99.90;;;7.41;64.74;100162.00;4987520;28;20275;-74
2022/02/18 08:30:13;;;;;;;16.25;8.02;;;7.20;99.90;;;7.36;64.92;100159.06;4971299;28;20311;-75
2022/02/18 08:32:44;;;;;;;28.25;7.55;;;7.30;99.90;;;7.20;64.77;100148.66;4971968;28;20191;-75
2022/02/18 08:35:12;;;;;;;12.00;4.97;;;7.10;99.90;;;7.35;64.67;100152.06;4971772;28;20619;-73
2022/02/18 08:37:41;;;;;;;11.93;6.30;;;7.20;99.90;;;7.34;64.21;100150.38;4973381;28;20253;-74
2022/02/18 08:40:11;;;;;;;11.48;6.38;;;7.20;99.90;;;7.36;64.84;100147.47;4972259;28;20211;-73
2022/02/18 08:42:39;;;;;;;13.88;5.25;;;7.20;99.90;;;7.40;64.60;100148.75;4974644;28;20755;-74
2022/02/18 08:45:09;;;;;;;11.10;6.15;;;7.20;99.90;;;7.53;64.05;100142.59;4974771;28;20187;-74
2022/02/18 08:47:39;;;;;;;8.57;5.07;;;7.30;99.90;;;7.56;64.11;100140.31;4974248;28;20192;-74
2022/02/18 08:50:11;;;;;;;16.02;7.50;;;7.40;99.90;;;7.63;64.03;100132.28;4974643;28;20218;-74
2022/02/18 08:52:42;;;;;;;10.10;5.80;;;7.40;99.90;;;7.49;64.23;100125.19;4973850;28;20274;-74
2022/02/18 08:55:14;;;;;;;17.90;6.45;;;7.40;99.90;;;7.54;64.03;100122.72;4973403;28;20257;-73
2022/02/18 08:57:44;;;;;;;15.02;7.45;;;7.40;99.90;;;7.62;64.37;100109.91;4973066;28;20286;-75
2022/02/18 09:00:17;;;;;;;9.05;5.20;;;7.40;99.90;;;7.81;63.71;100109.13;4974175;28;20245;-75
2022/02/18 09:02:46;;;;;;;11.25;5.00;;;7.60;99.90;;;7.83;63.15;100101.69;4974227;28;20744;-74
2022/02/18 09:05:16;;;;;;;20.10;5.50;;;7.60;99.90;;;8.07;63.03;100103.00;4974331;28;20336;-74
2022/02/18 09:07:45;;;;;;;13.02;5.80;;;7.80;99.90;;;8.24;62.40;100090.75;4970536;28;20646;-73
2022/02/18 09:10:14;;;;;;;19.50;6.38;;;7.90;99.90;;;8.20;62.50;100088.69;4970870;28;20219;-74
2022/02/18 09:12:43;;;;;;;21.00;5.85;;;8.00;99.90;;;8.23;62.29;100093.66;4971484;28;20711;-74
2022/02/18 09:15:16;;;;;;;11.88;6.47;;;8.00;99.90;;;8.31;61.72;100088.13;4971181;28;20192;-73
2022/02/18 09:17:51;;;;;;;14.75;6.03;;;8.10;99.90;;;8.19;61.79;100085.16;4970333;28;20270;-74
2022/02/18 09:20:21;;;;;;;16.83;6.10;;;8.00;99.90;;;8.15;62.28;100080.38;4971998;28;20255;-74
2022/02/18 09:22:50;;;;;;;10.15;5.90;;;7.90;99.90;;;8.34;61.96;100082.28;4971215;28;20203;-75
2022/02/18 09:25:18;;;;;;;10.75;6.82;;;8.10;99.90;;;8.38;61.62;100080.84;4971272;28;20556;-75
2022/02/18 09:27:47;;;;;;;14.38;5.80;;;8.10;99.90;;;8.67;61.55;100072.31;4971442;28;20520;-73
2022/02/18 09:30:15;;;;;;;16.83;7.47;;;8.30;99.90;;;8.75;61.16;100063.19;4971716;28;20572;-73
2022/02/18 09:33:04;;;;;;;10.85;6.78;;;8.40;99.90;;;8.81;60.33;100050.72;4965503;28;20199;-75
2022/02/18 09:35:34;;;;;;;16.58;7.63;;;8.50;99.90;;;8.60;60.72;100036.44;4967456;28;20231;-73
2022/02/18 09:38:02;;;;;;;13.23;7.40;;;8.40;99.90;;;8.64;61.07;100039.56;4961815;28;20685;-74
2022/02/18 09:40:31;;;;;;;14.15;7.18;;;8.40;99.90;;;8.68;61.10;100044.31;4971232;28;20564;-75
2022/02/18 09:43:00;;;;;;;14.45;6.40;;;8.40;99.90;;;8.71;60.63;100035.00;4958164;28;20609;-75
2022/02/18 09:45:29;;;;;;;15.27;8.95;;;8.40;99.90;;;8.66;60.98;100027.53;4971431;28;20635;-74
2022/02/18 09:47:59;;;;;;;9.88;6.57;;;8.40;99.90;;;8.80;60.05;100033.72;4963422;28;20199;-73
2022/02/18 09:50:29;;;;;;;20.55;6.38;;;8.60;99.90;;;8.70;60.39;100025.22;4956030;28;20219;-74
2022/02/18 09:53:20;;;;;;;14.13;6.60;;;8.50;99.90;;;8.90;59.78;100026.00;4969033;28;20608;-73
2022/02/18 09:55:50;;;;;;;11.70;6.00;;;8.60;99.90;;;8.94;60.14;100029.09;4956106;28;20192;-74
2022/02/18 09:58:25;;;;;;;13.95;7.10;;;8.70;99.90;;;9.07;60.16;100010.16;4970874;28;20194;-74
2022/02/18 10:00:57;;;;;;;15.07;6.22;;;8.80;99.90;;;8.87;59.72;100004.84;4973441;28;20191;-74
2022/02/18 10:03:26;;;;;;;9.88;5.63;;;8.70;99.90;;;9.14;59.25;100001.00;4973235;28;20234;-73
2022/02/18 10:05:55;;;;;;;17.70;5.07;;;8.80;99.90;;;9.02;58.83;99997.31;4974357;28;20721;-74
2022/02/18 10:08:26;;;;;;;8.40;5.50;;;8.80;99.90;;;8.74;59.00;99994.09;4974469;28;20183;-73
2022/02/18 10:11:01;;;;;;;6.30;4.80;;;8.60;98.50;;;8.70;59.64;99982.06;4974411;28;20184;-74
2022/02/18 10:13:36;;;;;;;11.65;5.22;;;8.50;99.00;;;8.74;59.74;99980.59;4972056;28;20267;-75
2022/02/18 10:16:14;;;;;;;9.57;4.85;;;8.50;99.00;;;8.81;59.25;99972.50;4953730;29;20192;-74
2022/02/18 10:18:52;;;;;;;11.13;5.00;;;8.60;98.80;;;8.81;59.34;99962.50;4954935;28;20211;-74
2022/02/18 10:21:23;;;;;;;11.10;5.50;;;8.60;98.50;;;8.85;59.38;99966.47;4955996;28;20817;-74
2022/02/18 10:24:07;;;;;;;7.88;4.50;;;8.60;98.20;;;8.74;59.47;99959.03;4955174;28;20196;-73
2022/02/18 10:26:38;;;;;;;10.15;4.00;;;8.60;97.60;;;8.79;59.78;99951.13;4957483;28;20400;-74
2022/02/18 10:29:08;;;;;;;10.27;5.15;;;8.60;98.10;;;8.78;59.97;99941.38;4956797;29;20216;-74
2022/02/18 10:31:38;;;;;;;8.55;4.63;;;8.60;97.70;;;9.13;59.43;99936.44;4955970;28;20557;-77
2022/02/18 10:34:09;;;;;;;13.15;4.65;;;8.80;98.80;;;9.34;59.06;99927.19;4956037;28;20258;-77
2022/02/18 10:36:40;;;;;;;10.10;4.53;;;9.00;98.20;;;9.23;58.64;99919.78;4973646;28;20785;-75